Terminal Aerodrome Forecast
Issued by NWS

Home | Current Version | Previous Version | Text Only | Print | Product List | Glossary On
Versions: 1 2 3 4 5 6 7 8 9 10 11 12 13 14 15 16 17 18 19 20 21 22 23 24 25 26 27 28
000
FTUS42 KMFL 100857 AAA
TAFFXE
TAF AMD
KFXE 100857Z 1009/1106 32004KT P6SM VCSH FEW015 BKN030
      TEMPO 1009/1013 5SM -RA BR SCT004 BKN012
     FM101400 05014G24KT P6SM VCSH SCT025 BKN070=

USA.gov is the U.S. government's official web portal to all federal, state and local government web resources and services.